MST,Max TemperatureF,Mean TemperatureF,Min TemperatureF,Max Dew PointF,MeanDew PointF,Min DewpointF,Max Humidity, Mean Humidity, Min Humidity, Max Sea Level PressureIn, Mean Sea Level PressureIn, Min Sea Level PressureIn, Max VisibilityMiles, Mean VisibilityMiles, Min VisibilityMiles, Max Wind SpeedMPH, Mean Wind SpeedMPH, Max Gust SpeedMPH,PrecipitationIn, CloudCover, Events, WindDirDegrees
2012-11-1,64,55,46,30,27,21,50,36,19,29.98,29.90,29.83,10,10,10,15,7,24,0.00,3,,236
2012-11-2,53,42,32,34,26,19,81,56,30,30.15,30.06,29.96,10,10,10,12,6,22,0.00,2,,291
2012-11-3,57,44,30,27,22,19,69,49,25,30.14,30.11,30.07,10,10,10,16,6,28,0.00,0,,271
2012-11-4,60,48,37,30,27,21,65,43,28,30.30,30.21,30.11,10,10,10,18,10,29,0.00,4,,285
2012-11-5,64,50,37,63,32,27,94,40,26,30.27,30.18,30.10,10,10,5,26,11,39,0.00,0,,261
2012-11-6,64,53,42,32,30,28,61,38,26,30.23,30.16,30.05,10,10,10,18,10,26,0.00,0,,267
2012-11-7,69,56,42,36,27,23,76,33,18,30.05,29.90,29.80,10,10,10,16,8,24,0.00,0,,243
2012-11-8,42,34,26,36,27,25,100,74,53,29.94,29.83,29.68,10,10,9,15,8,18,0.00,3,,19
2012-11-9,28,24,21,28,26,18,100,95,86,29.67,29.65,29.60,10,6,1,17,9,22,0.00,8,,12
2012-11-10,21,11,1,18,9,-2,93,85,73,29.89,29.78,29.67,10,9,2,17,13,23,0.00,6,,360
2012-11-11,28,13,0,16,6,-6,100,73,43,30.09,29.97,29.87,10,10,10,25,7,38,0.01,0,,284
2012-11-12,37,24,10,19,12,7,92,59,38,30.17,30.13,30.09,10,10,10,24,12,38,0.00,1,,318
2012-11-13,44,37,30,25,20,16,69,47,34,30.19,30.16,30.12,10,10,10,24,11,32,0.00,2,,250
2012-11-14,46,36,26,28,24,18,93,62,46,30.24,30.11,30.06,10,10,10,20,9,26,0.00,1,,235
2012-11-15,46,35,24,27,20,16,86,57,32,30.28,30.20,30.11,10,10,10,20,9,24,0.00,0,,184
2012-11-16,46,34,21,27,22,10,86,57,38,30.10,30.01,29.96,10,10,10,15,6,24,0.00,2,,117
2012-11-17,53,42,32,28,27,23,80,55,33,30.05,29.97,29.85,10,10,10,16,7,22,0.00,0,,178
2012-11-18,55,44,33,34,26,21,75,53,30,30.03,29.87,29.77,10,10,10,18,7,26,0.00,3,,222
2012-11-19,55,44,33,28,25,19,61,43,33,30.08,30.05,30.02,10,10,10,22,11,30,0.00,0,,230
2012-11-20,60,50,39,34,30,27,65,44,33,30.05,29.99,29.93,10,10,10,22,13,33,0.00,1,,220
2012-11-21,55,44,32,34,29,23,93,59,36,29.93,29.82,29.74,10,10,2,23,8,33,0.00,1,,218
2012-11-22,39,30,21,30,14,9,100,50,28,30.43,30.23,29.95,10,10,10,22,7,29,0.00,2,,296
2012-11-23,48,34,19,21,15,9,74,51,25,30.43,30.27,30.07,10,10,10,20,5,26,0.00,0,,162
2012-11-24,55,44,33,30,24,14,70,42,21,30.07,29.97,29.92,10,10,10,22,10,36,0.00,4,,283
2012-11-25,35,30,24,32,29,25,100,90,75,30.18,29.97,29.88,10,7,0,15,6,20,0.00,8,,359
2012-11-26,28,21,14,25,17,10,100,86,68,30.25,30.17,30.09,10,10,9,17,7,,0.00,1,,196
2012-11-27,46,32,17,28,22,12,93,63,37,30.11,30.08,30.04,10,10,10,18,5,23,0.00,0,,301
2012-11-28,51,42,33,30,22,16,75,46,28,30.10,30.01,29.88,10,10,10,20,10,24,0.00,0,,164
2012-11-29,51,43,35,32,25,21,75,46,30,29.96,29.91,29.86,10,10,10,23,11,39,0.00,1,,219
2012-11-30,55,46,37,34,29,25,70,51,38,29.89,29.77,29.67,10,10,10,16,10,25,0.00,2,,201